sensor_id;sensor_type;location;lat;lon;timestamp;pressure;altitude;pressure_sealevel;temperature;humidity
76590;BME280;65471;55.908;37.880;2023-03-17T00:01:52;100003.59;;;2.11;81.94
76590;BME280;65471;55.908;37.880;2023-03-17T00:04:23;100005.41;;;2.11;82.71
76590;BME280;65471;55.908;37.880;2023-03-17T00:06:51;100009.78;;;2.03;82.58
76590;BME280;65471;55.908;37.880;2023-03-17T00:09:19;100009.94;;;2.02;82.74
76590;BME280;65471;55.908;37.880;2023-03-17T00:11:46;100009.94;;;2.02;82.79
76590;BME280;65471;55.908;37.880;2023-03-17T00:14:14;100012.09;;;2.06;82.80
76590;BME280;65471;55.908;37.880;2023-03-17T00:16:44;100015.09;;;2.12;81.96
76590;BME280;65471;55.908;37.880;2023-03-17T00:19:28;100017.06;;;2.18;82.48
76590;BME280;65471;55.908;37.880;2023-03-17T00:21:59;100013.25;;;2.20;82.75
76590;BME280;65471;55.908;37.880;2023-03-17T00:24:27;100023.09;;;2.20;82.30
76590;BME280;65471;55.908;37.880;2023-03-17T00:26:54;100017.41;;;2.23;82.56
76590;BME280;65471;55.908;37.880;2023-03-17T00:29:22;100015.91;;;2.20;82.26
76590;BME280;65471;55.908;37.880;2023-03-17T00:31:49;100019.75;;;2.18;81.85
76590;BME280;65471;55.908;37.880;2023-03-17T00:34:17;100030.75;;;2.15;82.14
76590;BME280;65471;55.908;37.880;2023-03-17T00:36:45;100028.09;;;2.15;82.67
76590;BME280;65471;55.908;37.880;2023-03-17T00:39:14;100027.75;;;2.18;82.21
76590;BME280;65471;55.908;37.880;2023-03-17T00:41:41;99970.00;;;1.77;81.95
76590;BME280;65471;55.908;37.880;2023-03-17T00:44:08;100027.78;;;2.10;82.29
76590;BME280;65471;55.908;37.880;2023-03-17T00:46:35;100037.59;;;2.09;81.94
76590;BME280;65471;55.908;37.880;2023-03-17T00:49:14;100024.94;;;2.11;81.64
76590;BME280;65471;55.908;37.880;2023-03-17T00:51:42;100039.28;;;2.10;82.28
76590;BME280;65471;55.908;37.880;2023-03-17T00:54:11;100037.44;;;2.11;82.46
76590;BME280;65471;55.908;37.880;2023-03-17T00:56:39;100041.78;;;2.12;82.53
76590;BME280;65471;55.908;37.880;2023-03-17T00:59:18;100038.09;;;2.13;82.17
76590;BME280;65471;55.908;37.880;2023-03-17T01:01:47;100042.75;;;2.11;82.17
76590;BME280;65471;55.908;37.880;2023-03-17T01:04:14;100042.59;;;2.12;81.90
76590;BME280;65471;55.908;37.880;2023-03-17T01:06:41;100042.41;;;2.14;81.83
76590;BME280;65471;55.908;37.880;2023-03-17T01:09:12;100047.09;;;2.12;82.01
76590;BME280;65471;55.908;37.880;2023-03-17T01:11:40;100055.63;;;2.07;81.90
76590;BME280;65471;55.908;37.880;2023-03-17T01:14:09;100047.47;;;1.92;81.80
76590;BME280;65471;55.908;37.880;2023-03-17T01:16:36;100052.44;;;1.95;81.86
76590;BME280;65471;55.908;37.880;2023-03-17T01:19:04;100063.63;;;1.99;82.29
76590;BME280;65471;55.908;37.880;2023-03-17T01:21:31;100073.47;;;1.98;81.53
76590;BME280;65471;55.908;37.880;2023-03-17T01:23:58;100083.97;;;1.92;82.39
76590;BME280;65471;55.908;37.880;2023-03-17T01:26:25;100082.97;;;1.93;82.18
76590;BME280;65471;55.908;37.880;2023-03-17T01:28:52;100073.31;;;1.92;82.21
76590;BME280;65471;55.908;37.880;2023-03-17T01:31:20;100083.47;;;1.88;82.14
76590;BME280;65471;55.908;37.880;2023-03-17T01:33:48;100088.47;;;1.83;82.43
76590;BME280;65471;55.908;37.880;2023-03-17T01:36:15;100091.78;;;1.77;82.03
76590;BME280;65471;55.908;37.880;2023-03-17T01:38:43;100100.97;;;1.82;82.20
76590;BME280;65471;55.908;37.880;2023-03-17T01:41:11;100100.78;;;1.84;82.37
76590;BME280;65471;55.908;37.880;2023-03-17T01:43:38;100102.47;;;1.85;82.16
76590;BME280;65471;55.908;37.880;2023-03-17T01:46:21;100106.28;;;1.90;81.95
76590;BME280;65471;55.908;37.880;2023-03-17T01:49:12;100113.66;;;1.88;82.21
76590;BME280;65471;55.908;37.880;2023-03-17T01:59:46;100122.81;;;1.86;81.66
76590;BME280;65471;55.908;37.880;2023-03-17T02:02:19;100125.47;;;1.86;81.49
76590;BME280;65471;55.908;37.880;2023-03-17T02:04:50;100121.28;;;1.83;81.52
76590;BME280;65471;55.908;37.880;2023-03-17T02:07:19;100135.97;;;1.87;81.66
76590;BME280;65471;55.908;37.880;2023-03-17T02:09:46;100143.97;;;1.87;81.15
76590;BME280;65471;55.908;37.880;2023-03-17T02:12:13;100139.47;;;1.80;81.55
76590;BME280;65471;55.908;37.880;2023-03-17T02:14:40;100142.13;;;1.71;81.34
76590;BME280;65471;55.908;37.880;2023-03-17T02:17:07;100144.78;;;1.71;81.80
76590;BME280;65471;55.908;37.880;2023-03-17T02:19:34;100156.09;;;1.73;81.85
76590;BME280;65471;55.908;37.880;2023-03-17T02:22:01;100148.97;;;1.74;81.61
76590;BME280;65471;55.908;37.880;2023-03-17T02:24:36;100165.78;;;1.75;81.34
76590;BME280;65471;55.908;37.880;2023-03-17T02:27:15;100161.78;;;1.70;81.53
76590;BME280;65471;55.908;37.880;2023-03-17T02:29:43;100167.94;;;1.71;81.58
76590;BME280;65471;55.908;37.880;2023-03-17T02:32:12;100168.94;;;1.70;81.38
76590;BME280;65471;55.908;37.880;2023-03-17T02:34:39;100148.75;;;1.59;81.71
76590;BME280;65471;55.908;37.880;2023-03-17T02:37:06;100175.44;;;1.67;81.07
76590;BME280;65471;55.908;37.880;2023-03-17T02:39:34;100153.75;;;1.54;81.80
76590;BME280;65471;55.908;37.880;2023-03-17T02:42:01;100177.13;;;1.68;81.16
76590;BME280;65471;55.908;37.880;2023-03-17T02:44:28;100178.09;;;1.67;80.83
76590;BME280;65471;55.908;37.880;2023-03-17T02:46:55;100184.75;;;1.63;81.33
76590;BME280;65471;55.908;37.880;2023-03-17T02:49:22;100176.75;;;1.63;81.38
76590;BME280;65471;55.908;37.880;2023-03-17T02:51:50;100181.75;;;1.66;81.09
76590;BME280;65471;55.908;37.880;2023-03-17T02:54:17;100181.75;;;1.66;80.64
76590;BME280;65471;55.908;37.880;2023-03-17T02:56:44;100187.09;;;1.66;80.88
76590;BME280;65471;55.908;37.880;2023-03-17T02:59:10;100193.56;;;1.64;80.89
76590;BME280;65471;55.908;37.880;2023-03-17T03:01:37;100191.06;;;1.62;80.92
76590;BME280;65471;55.908;37.880;2023-03-17T03:04:06;100190.09;;;1.63;80.53
76590;BME280;65471;55.908;37.880;2023-03-17T03:06:33;100182.41;;;1.60;81.05
76590;BME280;65471;55.908;37.880;2023-03-17T03:09:00;100186.06;;;1.59;80.77
76590;BME280;65471;55.908;37.880;2023-03-17T03:11:27;100188.91;;;1.58;80.33
76590;BME280;65471;55.908;37.880;2023-03-17T03:13:54;100192.56;;;1.57;80.35
76590;BME280;65471;55.908;37.880;2023-03-17T03:16:21;100191.22;;;1.52;80.63
76590;BME280;65471;55.908;37.880;2023-03-17T03:18:48;100200.38;;;1.50;80.57
76590;BME280;65471;55.908;37.880;2023-03-17T03:21:15;100206.53;;;1.50;80.42
76590;BME280;65471;55.908;37.880;2023-03-17T03:23:42;100207.69;;;1.48;80.39
76590;BME280;65471;55.908;37.880;2023-03-17T03:26:09;100218.03;;;1.43;80.60
76590;BME280;65471;55.908;37.880;2023-03-17T03:28:35;100227.00;;;1.42;80.60
76590;BME280;65471;55.908;37.880;2023-03-17T03:31:02;100225.16;;;1.42;80.52
76590;BME280;65471;55.908;37.880;2023-03-17T03:33:30;100239.16;;;1.44;80.57
76590;BME280;65471;55.908;37.880;2023-03-17T03:35:57;100246.31;;;1.44;80.51
76590;BME280;65471;55.908;37.880;2023-03-17T03:38:26;100247.16;;;1.44;79.87
76590;BME280;65471;55.908;37.880;2023-03-17T03:40:53;100248.66;;;1.47;79.76
76590;BME280;65471;55.908;37.880;2023-03-17T03:43:20;100252.34;;;1.46;80.10
76590;BME280;65471;55.908;37.880;2023-03-17T03:45:49;100258.00;;;1.43;79.90
76590;BME280;65471;55.908;37.880;2023-03-17T03:48:17;100246.88;;;1.21;79.53
76590;BME280;65471;55.908;37.880;2023-03-17T03:50:44;100273.59;;;1.37;80.01
76590;BME280;65471;55.908;37.880;2023-03-17T03:53:11;100273.28;;;1.41;79.24
76590;BME280;65471;55.908;37.880;2023-03-17T03:55:38;100277.09;;;1.38;79.50
76590;BME280;65471;55.908;37.880;2023-03-17T03:58:05;100279.25;;;1.34;78.67
76590;BME280;65471;55.908;37.880;2023-03-17T04:00:32;100278.28;;;1.35;79.01
76590;BME280;65471;55.908;37.880;2023-03-17T04:02:59;100285.25;;;1.36;78.45
76590;BME280;65471;55.908;37.880;2023-03-17T04:05:27;100280.63;;;1.38;78.70
76590;BME280;65471;55.908;37.880;2023-03-17T04:07:54;100281.59;;;1.37;78.86
76590;BME280;65471;55.908;37.880;2023-03-17T04:10:21;100280.63;;;1.38;78.51
76590;BME280;65471;55.908;37.880;2023-03-17T04:12:48;100281.44;;;1.39;78.73
76590;BME280;65471;55.908;37.880;2023-03-17T04:15:17;100286.59;;;1.41;78.50
76590;BME280;65471;55.908;37.880;2023-03-17T04:17:45;100289.25;;;1.41;78.23
76590;BME280;65471;55.908;37.880;2023-03-17T04:20:14;100297.97;;;1.43;78.03
76590;BME280;65471;55.908;37.880;2023-03-17T04:22:42;100309.44;;;1.43;78.51
76590;BME280;65471;55.908;37.880;2023-03-17T04:25:11;100310.25;;;1.44;78.03
76590;BME280;65471;55.908;37.880;2023-03-17T04:27:40;100322.13;;;1.49;78.04
76590;BME280;65471;55.908;37.880;2023-03-17T04:30:10;100322.66;;;1.53;77.36
76590;BME280;65471;55.908;37.880;2023-03-17T04:32:37;100304.94;;;1.44;77.43
76590;BME280;65471;55.908;37.880;2023-03-17T04:35:05;100325.63;;;1.50;77.27
76590;BME280;65471;55.908;37.880;2023-03-17T04:37:34;100320.91;;;1.44;76.55
76590;BME280;65471;55.908;37.880;2023-03-17T04:40:01;100323.09;;;1.40;76.61
76590;BME280;65471;55.908;37.880;2023-03-17T04:42:28;100328.91;;;1.44;76.60
76590;BME280;65471;55.908;37.880;2023-03-17T04:44:55;100341.41;;;1.43;76.31
76590;BME280;65471;55.908;37.880;2023-03-17T04:47:22;100343.28;;;1.51;75.99
76590;BME280;65471;55.908;37.880;2023-03-17T04:49:48;100359.47;;;1.58;75.82
76590;BME280;65471;55.908;37.880;2023-03-17T04:52:15;100360.84;;;1.62;76.53
76590;BME280;65471;55.908;37.880;2023-03-17T04:54:42;100363.16;;;1.65;75.82
76590;BME280;65471;55.908;37.880;2023-03-17T04:57:09;100366.53;;;1.67;75.90
76590;BME280;65471;55.908;37.880;2023-03-17T04:59:36;100382.38;;;1.68;75.10
76590;BME280;65471;55.908;37.880;2023-03-17T05:02:02;100382.38;;;1.68;75.49
76590;BME280;65471;55.908;37.880;2023-03-17T05:04:29;100382.66;;;1.65;74.37
76590;BME280;65471;55.908;37.880;2023-03-17T05:06:58;100393.03;;;1.68;75.26
76590;BME280;65471;55.908;37.880;2023-03-17T05:09:26;100392.38;;;1.75;75.11
76590;BME280;65471;55.908;37.880;2023-03-17T05:11:54;100392.06;;;1.78;75.22
76590;BME280;65471;55.908;37.880;2023-03-17T05:14:21;100389.22;;;1.79;73.90
76590;BME280;65471;55.908;37.880;2023-03-17T05:16:48;100401.75;;;1.79;74.00
76590;BME280;65471;55.908;37.880;2023-03-17T05:19:16;100384.50;;;1.65;74.29
76590;BME280;65471;55.908;37.880;2023-03-17T05:21:44;100412.56;;;1.77;74.45
76590;BME280;65471;55.908;37.880;2023-03-17T05:24:10;100411.75;;;1.85;74.03
76590;BME280;65471;55.908;37.880;2023-03-17T05:26:38;100389.56;;;1.76;73.36
76590;BME280;65471;55.908;37.880;2023-03-17T05:29:05;100424.09;;;1.86;73.31
76590;BME280;65471;55.908;37.880;2023-03-17T05:31:32;100433.09;;;1.85;72.38
76590;BME280;65471;55.908;37.880;2023-03-17T05:33:59;100437.75;;;1.83;72.50
76590;BME280;65471;55.908;37.880;2023-03-17T05:36:26;100447.38;;;1.76;72.15
76590;BME280;65471;55.908;37.880;2023-03-17T05:38:52;100419.25;;;1.55;71.90
76590;BME280;65471;55.908;37.880;2023-03-17T05:41:19;100433.63;;;1.62;72.22
76590;BME280;65471;55.908;37.880;2023-03-17T05:43:47;100459.41;;;1.80;71.85
76590;BME280;65471;55.908;37.880;2023-03-17T05:46:14;100460.75;;;1.84;72.41
76590;BME280;65471;55.908;37.880;2023-03-17T05:48:40;100459.75;;;1.85;71.26
76590;BME280;65471;55.908;37.880;2023-03-17T05:51:08;100459.59;;;1.86;72.27
76590;BME280;65471;55.908;37.880;2023-03-17T05:53:34;100469.94;;;1.89;71.22
76590;BME280;65471;55.908;37.880;2023-03-17T05:56:02;100471.78;;;1.89;71.20
76590;BME280;65471;55.908;37.880;2023-03-17T05:58:29;100477.28;;;1.87;71.04
76590;BME280;65471;55.908;37.880;2023-03-17T06:00:56;100475.75;;;1.85;70.67
76590;BME280;65471;55.908;37.880;2023-03-17T06:03:23;100484.47;;;1.95;70.51
76590;BME280;65471;55.908;37.880;2023-03-17T06:05:50;100489.81;;;1.95;69.92
76590;BME280;65471;55.908;37.880;2023-03-17T06:08:17;100487.16;;;1.95;70.08
76590;BME280;65471;55.908;37.880;2023-03-17T06:10:44;100490.34;;;1.99;69.85
76590;BME280;65471;55.908;37.880;2023-03-17T06:13:11;100490.88;;;2.02;70.01
76590;BME280;65471;55.908;37.880;2023-03-17T06:15:38;100494.22;;;2.04;69.93
76590;BME280;65471;55.908;37.880;2023-03-17T06:18:05;100492.22;;;2.06;69.43
76590;BME280;65471;55.908;37.880;2023-03-17T06:20:33;100473.31;;;1.92;69.20
76590;BME280;65471;55.908;37.880;2023-03-17T06:23:00;100493.53;;;2.02;68.79
76590;BME280;65471;55.908;37.880;2023-03-17T06:25:31;100502.84;;;1.98;69.19
76590;BME280;65471;55.908;37.880;2023-03-17T06:27:59;100504.50;;;1.99;69.07
76590;BME280;65471;55.908;37.880;2023-03-17T06:30:29;100501.22;;;2.05;68.92
76590;BME280;65471;55.908;37.880;2023-03-17T06:32:57;100507.28;;;2.16;68.83
76590;BME280;65471;55.908;37.880;2023-03-17T06:35:24;100508.31;;;2.23;68.37
76590;BME280;65471;55.908;37.880;2023-03-17T06:37:51;100509.47;;;2.20;68.30
76590;BME280;65471;55.908;37.880;2023-03-17T06:40:17;100507.66;;;2.29;67.97
76590;BME280;65471;55.908;37.880;2023-03-17T06:42:44;100504.66;;;2.32;68.02
76590;BME280;65471;55.908;37.880;2023-03-17T06:45:11;100509.22;;;2.40;67.89
76590;BME280;65471;55.908;37.880;2023-03-17T06:47:38;100502.41;;;2.46;67.62
76590;BME280;65471;55.908;37.880;2023-03-17T06:50:06;100502.41;;;2.46;66.58
76590;BME280;65471;55.908;37.880;2023-03-17T06:52:38;100505.75;;;2.39;66.52
76590;BME280;65471;55.908;37.880;2023-03-17T06:55:06;100504.44;;;2.52;66.70
76590;BME280;65471;55.908;37.880;2023-03-17T06:57:34;100501.44;;;2.55;66.53
76590;BME280;65471;55.908;37.880;2023-03-17T07:00:00;100506.78;;;2.55;66.11
76590;BME280;65471;55.908;37.880;2023-03-17T07:02:29;100511.63;;;2.51;66.06
76590;BME280;65471;55.908;37.880;2023-03-17T07:04:56;100513.59;;;2.49;65.70
76590;BME280;65471;55.908;37.880;2023-03-17T07:07:23;100517.44;;;2.55;65.91
76590;BME280;65471;55.908;37.880;2023-03-17T07:09:50;100521.13;;;2.54;65.38
76590;BME280;65471;55.908;37.880;2023-03-17T07:12:18;100529.81;;;2.56;65.50
76590;BME280;65471;55.908;37.880;2023-03-17T07:14:45;100530.34;;;2.59;65.03
76590;BME280;65471;55.908;37.880;2023-03-17T07:17:13;100531.81;;;2.62;64.86
76590;BME280;65471;55.908;37.880;2023-03-17T07:19:40;100526.69;;;2.69;64.82
76590;BME280;65471;55.908;37.880;2023-03-17T07:22:10;100529.22;;;2.79;65.03
76590;BME280;65471;55.908;37.880;2023-03-17T07:24:38;100530.78;;;2.89;64.33
76590;BME280;65471;55.908;37.880;2023-03-17T07:27:05;100534.94;;;2.92;63.61
76590;BME280;65471;55.908;37.880;2023-03-17T07:29:32;100545.81;;;2.99;63.94
76590;BME280;65471;55.908;37.880;2023-03-17T07:32:00;100542.66;;;3.11;63.59
76590;BME280;65471;55.908;37.880;2023-03-17T07:34:27;100550.53;;;3.21;63.25
76590;BME280;65471;55.908;37.880;2023-03-17T07:36:54;100558.91;;;3.26;62.80
76590;BME280;65471;55.908;37.880;2023-03-17T07:39:21;100568.09;;;3.32;62.97
76590;BME280;65471;55.908;37.880;2023-03-17T07:41:48;100572.78;;;3.38;62.57
76590;BME280;65471;55.908;37.880;2023-03-17T07:44:21;100580.81;;;3.47;61.97
76590;BME280;65471;55.908;37.880;2023-03-17T07:46:49;100590.69;;;3.54;61.60
76590;BME280;65471;55.908;37.880;2023-03-17T07:49:17;100567.94;;;3.42;61.91
76590;BME280;65471;55.908;37.880;2023-03-17T07:52:05;100576.47;;;3.54;61.11
76590;BME280;65471;55.908;37.880;2023-03-17T07:54:32;100580.47;;;3.50;60.88
76590;BME280;65471;55.908;37.880;2023-03-17T07:56:58;100577.31;;;3.54;61.51
76590;BME280;65471;55.908;37.880;2023-03-17T07:59:26;100577.81;;;3.58;60.39
76590;BME280;65471;55.908;37.880;2023-03-17T08:01:52;100591.50;;;3.63;60.51
76590;BME280;65471;55.908;37.880;2023-03-17T08:04:19;100593.38;;;3.62;60.21
76590;BME280;65471;55.908;37.880;2023-03-17T08:06:46;100585.66;;;3.76;60.47
76590;BME280;65471;55.908;37.880;2023-03-17T08:09:14;100589.19;;;3.93;59.83
76590;BME280;65471;55.908;37.880;2023-03-17T08:11:41;100588.84;;;4.04;59.46
76590;BME280;65471;55.908;37.880;2023-03-17T08:14:08;100588.16;;;4.10;58.61
76590;BME280;65471;55.908;37.880;2023-03-17T08:16:35;100605.41;;;4.08;58.30
76590;BME280;65471;55.908;37.880;2023-03-17T08:19:02;100605.56;;;3.98;58.39
76590;BME280;65471;55.908;37.880;2023-03-17T08:21:29;100609.59;;;3.86;58.45
76590;BME280;65471;55.908;37.880;2023-03-17T08:23:56;100612.41;;;3.76;58.28
76590;BME280;65471;55.908;37.880;2023-03-17T08:26:23;100614.59;;;3.72;58.01
76590;BME280;65471;55.908;37.880;2023-03-17T08:28:50;100601.88;;;3.66;57.79
76590;BME280;65471;55.908;37.880;2023-03-17T08:31:19;100610.59;;;3.76;58.32
76590;BME280;65471;55.908;37.880;2023-03-17T08:33:51;100607.56;;;3.63;57.18
76590;BME280;65471;55.908;37.880;2023-03-17T08:36:20;100621.44;;;3.67;57.74
76590;BME280;65471;55.908;37.880;2023-03-17T08:38:47;100627.97;;;3.64;57.46
76590;BME280;65471;55.908;37.880;2023-03-17T08:41:20;100640.50;;;3.63;57.56
76590;BME280;65471;55.908;37.880;2023-03-17T08:43:47;100644.66;;;3.66;57.23
76590;BME280;65471;55.908;37.880;2023-03-17T08:46:24;100645.19;;;3.70;56.32
76590;BME280;65471;55.908;37.880;2023-03-17T08:48:53;100651.22;;;3.63;56.66
76590;BME280;65471;55.908;37.880;2023-03-17T08:51:23;100653.22;;;3.70;56.27
76590;BME280;65471;55.908;37.880;2023-03-17T08:53:53;100663.06;;;3.77;56.01
76590;BME280;65471;55.908;37.880;2023-03-17T08:56:21;100637.66;;;3.65;56.21
76590;BME280;65471;55.908;37.880;2023-03-17T08:58:48;100668.44;;;3.94;55.45
76590;BME280;65471;55.908;37.880;2023-03-17T09:01:15;100669.28;;;4.11;55.01
76590;BME280;65471;55.908;37.880;2023-03-17T09:03:43;100667.94;;;4.31;54.36
76590;BME280;65471;55.908;37.880;2023-03-17T09:06:11;100645.53;;;4.32;54.37
76590;BME280;65471;55.908;37.880;2023-03-17T09:08:41;100660.91;;;4.47;53.41
76590;BME280;65471;55.908;37.880;2023-03-17T09:11:14;100672.78;;;4.53;52.67
76590;BME280;65471;55.908;37.880;2023-03-17T09:13:42;100661.72;;;4.56;53.04
76590;BME280;65471;55.908;37.880;2023-03-17T09:16:09;100666.06;;;4.65;52.95
76590;BME280;65471;55.908;37.880;2023-03-17T09:18:36;100672.06;;;4.67;52.39
76590;BME280;65471;55.908;37.880;2023-03-17T09:21:03;100671.41;;;4.65;51.21
76590;BME280;65471;55.908;37.880;2023-03-17T09:23:31;100678.94;;;4.70;50.31
76590;BME280;65471;55.908;37.880;2023-03-17T09:25:59;100684.81;;;4.73;50.36
76590;BME280;65471;55.908;37.880;2023-03-17T09:28:26;100683.66;;;5.07;50.84
76590;BME280;65471;55.908;37.880;2023-03-17T09:31:04;100696.06;;;5.79;49.94
76590;BME280;65471;55.908;37.880;2023-03-17T09:33:31;100683.94;;;6.15;48.52
76590;BME280;65471;55.908;37.880;2023-03-17T09:35:58;100690.91;;;6.62;46.05
76590;BME280;65471;55.908;37.880;2023-03-17T09:38:26;100697.69;;;6.88;45.33
76590;BME280;65471;55.908;37.880;2023-03-17T09:43:54;100696.16;;;7.60;43.82
76590;BME280;65471;55.908;37.880;2023-03-17T09:46:38;100695.47;;;7.94;42.92
76590;BME280;65471;55.908;37.880;2023-03-17T09:49:14;100701.44;;;7.68;41.73
76590;BME280;65471;55.908;37.880;2023-03-17T09:51:45;100704.63;;;7.42;42.38
76590;BME280;65471;55.908;37.880;2023-03-17T09:54:46;100708.03;;;7.51;42.20
76590;BME280;65471;55.908;37.880;2023-03-17T09:57:32;100701.38;;;8.05;40.62
76590;BME280;65471;55.908;37.880;2023-03-17T10:00:05;100698.41;;;8.64;39.54
76590;BME280;65471;55.908;37.880;2023-03-17T10:02:35;100701.69;;;8.60;38.15
76590;BME280;65471;55.908;37.880;2023-03-17T10:10:27;100718.75;;;8.95;37.85
76590;BME280;65471;55.908;37.880;2023-03-17T10:13:07;100700.31;;;9.47;37.17
76590;BME280;65471;55.908;37.880;2023-03-17T10:16:08;100708.56;;;9.94;36.27
76590;BME280;65471;55.908;37.880;2023-03-17T10:18:55;100709.44;;;10.08;36.33
76590;BME280;65471;55.908;37.880;2023-03-17T10:21:30;100714.53;;;9.70;35.99
76590;BME280;65471;55.908;37.880;2023-03-17T10:23:58;100710.25;;;9.33;36.96
76590;BME280;65471;55.908;37.880;2023-03-17T10:26:35;100705.19;;;8.89;37.23
76590;BME280;65471;55.908;37.880;2023-03-17T10:29:13;100713.25;;;8.54;37.56
76590;BME280;65471;55.908;37.880;2023-03-17T10:31:41;100719.47;;;8.11;38.42
76590;BME280;65471;55.908;37.880;2023-03-17T10:34:16;100730.00;;;7.69;38.50
76590;BME280;65471;55.908;37.880;2023-03-17T10:37:05;100716.72;;;7.31;39.45
76590;BME280;65471;55.908;37.880;2023-03-17T10:39:45;100719.69;;;7.21;39.75
76590;BME280;65471;55.908;37.880;2023-03-17T10:42:20;100726.38;;;7.25;39.47
76590;BME280;65471;55.908;37.880;2023-03-17T10:45:01;100726.13;;;7.57;38.70
76590;BME280;65471;55.908;37.880;2023-03-17T10:47:59;100725.91;;;7.37;38.45
76590;BME280;65471;55.908;37.880;2023-03-17T10:50:30;100725.22;;;7.05;39.05
76590;BME280;65471;55.908;37.880;2023-03-17T10:55:32;100709.19;;;6.82;39.18
76590;BME280;65471;55.908;37.880;2023-03-17T10:58:12;100728.81;;;6.82;39.96
76590;BME280;65471;55.908;37.880;2023-03-17T11:01:37;100733.06;;;6.62;39.31
76590;BME280;65471;55.908;37.880;2023-03-17T11:03:38;100731.25;;;6.39;39.04
76590;BME280;65471;55.908;37.880;2023-03-17T11:06:09;100738.63;;;6.37;39.18
76590;BME280;65471;55.908;37.880;2023-03-17T11:08:45;100751.06;;;6.38;38.97
76590;BME280;65471;55.908;37.880;2023-03-17T11:11:27;100746.00;;;6.43;39.00
76590;BME280;65471;55.908;37.880;2023-03-17T11:14:09;100748.88;;;6.56;38.58
76590;BME280;65471;55.908;37.880;2023-03-17T11:16:41;100745.25;;;6.49;38.17
76590;BME280;65471;55.908;37.880;2023-03-17T11:19:15;100749.22;;;6.38;38.26
76590;BME280;65471;55.908;37.880;2023-03-17T11:21:56;100745.75;;;6.30;38.50
76590;BME280;65471;55.908;37.880;2023-03-17T11:24:30;100759.69;;;6.48;38.98
76590;BME280;65471;55.908;37.880;2023-03-17T11:27:01;100746.94;;;6.50;39.04
76590;BME280;65471;55.908;37.880;2023-03-17T11:39:58;100757.66;;;6.04;38.90
76590;BME280;65471;55.908;37.880;2023-03-17T11:42:43;100752.44;;;6.11;39.19
76590;BME280;65471;55.908;37.880;2023-03-17T11:54:02;100755.03;;;5.64;37.00
76590;BME280;65471;55.908;37.880;2023-03-17T11:56:24;100765.53;;;5.74;36.60
76590;BME280;65471;55.908;37.880;2023-03-17T11:59:09;100765.06;;;5.70;35.75
76590;BME280;65471;55.908;37.880;2023-03-17T12:01:51;100775.00;;;5.62;36.33
76590;BME280;65471;55.908;37.880;2023-03-17T12:04:37;100781.22;;;5.54;36.22
76590;BME280;65471;55.908;37.880;2023-03-17T12:07:16;100771.34;;;5.55;36.91
76590;BME280;65471;55.908;37.880;2023-03-17T12:10:17;100783.41;;;5.50;36.22
76590;BME280;65471;55.908;37.880;2023-03-17T12:12:54;100783.94;;;5.46;36.99
76590;BME280;65471;55.908;37.880;2023-03-17T12:18:27;100781.63;;;5.34;37.52
76590;BME280;65471;55.908;37.880;2023-03-17T12:23:59;100777.19;;;5.10;36.94
76590;BME280;65471;55.908;37.880;2023-03-17T12:26:37;100775.16;;;5.12;37.54
76590;BME280;65471;55.908;37.880;2023-03-17T12:29:18;100788.91;;;5.09;37.73
76590;BME280;65471;55.908;37.880;2023-03-17T12:32:00;100790.06;;;4.98;37.69
76590;BME280;65471;55.908;37.880;2023-03-17T12:34:51;100802.31;;;4.93;37.27
76590;BME280;65471;55.908;37.880;2023-03-17T12:37:24;100791.25;;;4.96;37.69
76590;BME280;65471;55.908;37.880;2023-03-17T12:42:35;100796.13;;;5.00;37.15
76590;BME280;65471;55.908;37.880;2023-03-17T12:45:55;100804.00;;;4.94;37.02
76590;BME280;65471;55.908;37.880;2023-03-17T12:53:53;100806.34;;;4.72;38.75
76590;BME280;65471;55.908;37.880;2023-03-17T12:58:54;100812.38;;;4.74;38.55
76590;BME280;65471;55.908;37.880;2023-03-17T13:01:38;100820.06;;;4.94;38.88
76590;BME280;65471;55.908;37.880;2023-03-17T13:06:42;100822.94;;;5.65;38.62
76590;BME280;65471;55.908;37.880;2023-03-17T13:11:58;100821.13;;;5.88;37.79
76590;BME280;65471;55.908;37.880;2023-03-17T13:14:42;100823.91;;;5.72;38.10
76590;BME280;65471;55.908;37.880;2023-03-17T13:22:39;100826.94;;;5.69;38.10
76590;BME280;65471;55.908;37.880;2023-03-17T13:27:41;100806.88;;;5.48;38.01
76590;BME280;65471;55.908;37.880;2023-03-17T13:36:14;100831.19;;;6.03;38.97
76590;BME280;65471;55.908;37.880;2023-03-17T13:44:33;100839.41;;;5.53;39.14
76590;BME280;65471;55.908;37.880;2023-03-17T13:47:34;100847.81;;;5.34;39.40
76590;BME280;65471;55.908;37.880;2023-03-17T13:52:53;100850.56;;;5.01;39.91
76590;BME280;65471;55.908;37.880;2023-03-17T14:00:46;100865.16;;;6.50;39.00
76590;BME280;65471;55.908;37.880;2023-03-17T14:03:53;100866.84;;;8.47;36.46
76590;BME280;65471;55.908;37.880;2023-03-17T14:06:26;100862.72;;;9.86;34.88
76590;BME280;65471;55.908;37.880;2023-03-17T14:09:06;100866.22;;;10.28;33.52
76590;BME280;65471;55.908;37.880;2023-03-17T14:11:37;100859.72;;;9.67;33.71
76590;BME280;65471;55.908;37.880;2023-03-17T14:14:31;100866.19;;;9.10;33.71
76590;BME280;65471;55.908;37.880;2023-03-17T14:17:18;100881.31;;;8.46;34.47
76590;BME280;65471;55.908;37.880;2023-03-17T14:22:42;100888.88;;;7.31;36.25
76590;BME280;65471;55.908;37.880;2023-03-17T14:25:25;100887.16;;;6.77;36.25
76590;BME280;65471;55.908;37.880;2023-03-17T14:27:56;100882.63;;;6.23;36.56
76590;BME280;65471;55.908;37.880;2023-03-17T14:30:29;100892.63;;;5.98;36.97
76590;BME280;65471;55.908;37.880;2023-03-17T14:33:05;100901.22;;;5.77;37.34
76590;BME280;65471;55.908;37.880;2023-03-17T14:35:36;100908.63;;;5.58;37.13
76590;BME280;65471;55.908;37.880;2023-03-17T14:38:23;100908.84;;;5.40;37.05
76590;BME280;65471;55.908;37.880;2023-03-17T14:43:31;100913.22;;;5.08;38.03